Time;durP1;ratioP1;P1;durP2;ratioP2;P2;SDS_P1;SDS_P2;PMS_P1;PMS_P2;Temp;Humidity;BMP_temperature;BMP_pressure;BME280_temperature;BME280_humidity;BME280_pressure;Samples;Min_cycle;Max_cycle;Signal;HPM_P1;HPM_P2
2024/01/09 00:01:41;;;;;;;28.55;18.23;;;;;;;;;;5030888;28;20033;-66
2024/01/09 00:04:06;;;;;;;27.77;18.83;;;;;;;;;;5031545;28;20509;-67
2024/01/09 00:06:33;;;;;;;26.30;17.58;;;;;;;;;;5031453;28;20030;-66
2024/01/09 00:08:58;;;;;;;27.95;18.40;;;;;;;;;;5031887;28;20467;-66
2024/01/09 00:11:24;;;;;;;27.17;17.77;;;;;;;;;;5036674;28;20033;-66
2024/01/09 00:13:50;;;;;;;25.15;17.13;;;;;;;;;;5037161;28;20090;-66
2024/01/09 00:16:16;;;;;;;26.70;17.50;;;;;;;;;;5036796;28;20483;-66
2024/01/09 00:18:42;;;;;;;24.05;15.73;;;;;;;;;;5036691;28;20025;-66
2024/01/09 00:21:08;;;;;;;23.92;15.57;;;;;;;;;;5039350;28;20513;-68
2024/01/09 00:23:34;;;;;;;24.98;16.60;;;;;;;;;;5039920;28;20025;-67
2024/01/09 00:26:01;;;;;;;26.45;15.15;;;;;;;;;;5036147;28;20079;-65
2024/01/09 00:28:27;;;;;;;25.13;15.60;;;;;;;;;;5032465;28;20442;-65
2024/01/09 00:30:53;;;;;;;23.15;15.15;;;;;;;;;;5033478;28;20025;-65
2024/01/09 00:33:19;;;;;;;28.70;15.25;;;;;;;;;;5033878;28;20049;-65
2024/01/09 00:35:45;;;;;;;20.77;14.23;;;;;;;;;;5033815;28;20060;-66
2024/01/09 00:38:11;;;;;;;22.00;14.73;;;;;;;;;;5033696;28;20055;-65
2024/01/09 00:40:37;;;;;;;25.88;15.13;;;;;;;;;;5033441;28;20466;-65
2024/01/09 00:43:03;;;;;;;21.83;14.18;;;;;;;;;;5033676;28;20053;-66
2024/01/09 00:45:29;;;;;;;19.50;13.30;;;;;;;;;;5033568;28;20064;-65
2024/01/09 00:47:55;;;;;;;22.40;13.32;;;;;;;;;;5033375;28;20049;-67
2024/01/09 00:50:21;;;;;;;18.33;12.35;;;;;;;;;;5033258;28;20475;-65
2024/01/09 00:52:47;;;;;;;20.95;14.20;;;;;;;;;;5033487;28;20026;-66
2024/01/09 00:55:13;;;;;;;19.52;12.85;;;;;;;;;;5033443;28;20060;-65
2024/01/09 00:57:39;;;;;;;17.08;11.82;;;;;;;;;;5033410;28;20040;-66
2024/01/09 01:00:05;;;;;;;19.25;12.85;;;;;;;;;;5033006;28;20610;-67
2024/01/09 01:02:31;;;;;;;20.88;13.05;;;;;;;;;;5033134;28;20494;-66
2024/01/09 01:04:57;;;;;;;21.25;12.52;;;;;;;;;;5042878;28;20044;-66
2024/01/09 01:07:23;;;;;;;19.17;11.63;;;;;;;;;;5053152;28;20028;-66
2024/01/09 01:09:49;;;;;;;17.73;11.93;;;;;;;;;;5052763;28;20478;-66
2024/01/09 01:12:15;;;;;;;18.15;11.77;;;;;;;;;;5053024;28;20104;-66
2024/01/09 01:14:41;;;;;;;14.98;10.05;;;;;;;;;;5052820;28;20021;-66
2024/01/09 01:17:07;;;;;;;20.02;11.02;;;;;;;;;;5053161;28;20036;-66
2024/01/09 01:19:33;;;;;;;18.58;10.48;;;;;;;;;;5052556;28;20024;-65
2024/01/09 01:21:59;;;;;;;22.40;10.27;;;;;;;;;;5052622;28;20032;-67
2024/01/09 01:24:25;;;;;;;16.48;10.20;;;;;;;;;;5053484;28;20521;-68
2024/01/09 01:26:51;;;;;;;16.00;9.65;;;;;;;;;;5053578;28;20116;-67
2024/01/09 01:29:17;;;;;;;19.25;9.77;;;;;;;;;;5065923;22;20037;-67
2024/01/09 01:31:45;;;;;;;19.30;10.05;;;;;;;;;;5031205;28;20021;-67
2024/01/09 01:34:11;;;;;;;15.35;9.40;;;;;;;;;;5031902;28;20025;-67
2024/01/09 01:36:37;;;;;;;16.40;10.55;;;;;;;;;;5031786;28;20022;-68
2024/01/09 01:39:04;;;;;;;16.05;9.93;;;;;;;;;;5031813;28;20033;-68
2024/01/09 01:41:30;;;;;;;16.27;9.80;;;;;;;;;;5031634;28;20054;-68
2024/01/09 01:43:56;;;;;;;14.82;9.13;;;;;;;;;;5021318;28;20109;-68
2024/01/09 01:46:22;;;;;;;12.82;8.63;;;;;;;;;;5011565;28;20037;-67
2024/01/09 01:48:48;;;;;;;13.32;8.38;;;;;;;;;;5011462;28;20456;-67
2024/01/09 01:51:14;;;;;;;15.60;9.35;;;;;;;;;;5011364;28;20060;-65
2024/01/09 01:53:40;;;;;;;14.40;8.77;;;;;;;;;;5011496;28;20100;-65
2024/01/09 01:56:07;;;;;;;13.48;8.60;;;;;;;;;;5011386;28;20368;-66
2024/01/09 01:58:33;;;;;;;13.18;8.75;;;;;;;;;;5011210;28;20132;-65
2024/01/09 02:01:00;;;;;;;15.15;8.23;;;;;;;;;;5011041;28;20056;-66
2024/01/09 02:03:26;;;;;;;14.88;8.27;;;;;;;;;;5011046;28;20048;-67
2024/01/09 02:05:52;;;;;;;16.05;8.32;;;;;;;;;;5011370;28;20392;-67
2024/01/09 02:08:20;;;;;;;15.85;8.18;;;;;;;;;;5011057;28;20352;-67
2024/01/09 02:10:46;;;;;;;13.10;7.78;;;;;;;;;;5010988;28;20018;-67
2024/01/09 02:13:13;;;;;;;13.40;7.43;;;;;;;;;;5010863;28;20192;-67
2024/01/09 02:15:39;;;;;;;11.13;7.97;;;;;;;;;;5010850;28;20026;-67
2024/01/09 02:18:05;;;;;;;13.52;7.57;;;;;;;;;;5010640;28;20479;-67
2024/01/09 02:20:31;;;;;;;12.38;7.22;;;;;;;;;;5010549;28;20117;-67
2024/01/09 02:22:57;;;;;;;12.35;7.90;;;;;;;;;;5010504;28;20026;-66
2024/01/09 02:25:23;;;;;;;9.88;7.38;;;;;;;;;;5010741;28;20125;-67
2024/01/09 02:28:07;;;;;;;11.02;6.80;;;;;;;;;;5009102;28;20483;-68
2024/01/09 02:30:33;;;;;;;10.75;7.35;;;;;;;;;;5010273;28;20042;-68
2024/01/09 02:33:00;;;;;;;12.05;6.38;;;;;;;;;;5010041;28;20436;-68
2024/01/09 02:35:26;;;;;;;10.32;6.90;;;;;;;;;;5010746;28;20028;-68
2024/01/09 02:37:52;;;;;;;9.23;6.30;;;;;;;;;;5010526;28;20060;-68
2024/01/09 02:40:18;;;;;;;9.82;6.10;;;;;;;;;;5008775;28;20028;-69
2024/01/09 02:42:44;;;;;;;8.77;6.28;;;;;;;;;;5010729;28;20038;-69
2024/01/09 02:45:13;;;;;;;9.50;6.30;;;;;;;;;;5011125;28;20036;-68
2024/01/09 02:47:39;;;;;;;8.93;6.25;;;;;;;;;;5011932;28;20097;-69
2024/01/09 02:50:05;;;;;;;9.77;6.32;;;;;;;;;;5010874;28;20101;-69
2024/01/09 02:52:31;;;;;;;12.13;6.53;;;;;;;;;;5012004;28;20014;-69
2024/01/09 02:54:57;;;;;;;12.35;6.28;;;;;;;;;;5011298;28;20598;-69
2024/01/09 02:57:23;;;;;;;10.45;6.28;;;;;;;;;;5009996;28;20033;-68
2024/01/09 02:59:49;;;;;;;8.98;5.72;;;;;;;;;;5010217;28;20022;-68
2024/01/09 03:02:15;;;;;;;8.85;6.40;;;;;;;;;;5009914;28;20033;-68
2024/01/09 03:04:41;;;;;;;10.65;6.57;;;;;;;;;;5010057;28;20033;-68
2024/01/09 03:07:07;;;;;;;9.23;5.93;;;;;;;;;;5010210;28;20061;-68
2024/01/09 03:09:33;;;;;;;9.15;5.60;;;;;;;;;;5008879;28;20049;-68
2024/01/09 03:11:59;;;;;;;10.10;5.88;;;;;;;;;;5010170;28;20029;-68
2024/01/09 03:14:25;;;;;;;9.25;5.75;;;;;;;;;;5009752;28;20341;-68
2024/01/09 03:16:51;;;;;;;10.13;5.40;;;;;;;;;;5009922;28;20438;-67
2024/01/09 03:19:17;;;;;;;9.50;5.15;;;;;;;;;;5009783;28;20030;-68
2024/01/09 03:21:43;;;;;;;7.43;5.50;;;;;;;;;;5009842;28;20053;-69
2024/01/09 03:24:09;;;;;;;8.65;5.75;;;;;;;;;;5009865;28;20030;-67
2024/01/09 03:26:35;;;;;;;8.25;5.00;;;;;;;;;;5009809;28;20058;-67
2024/01/09 03:29:02;;;;;;;6.88;5.20;;;;;;;;;;5009467;28;20049;-67
2024/01/09 03:31:29;;;;;;;7.22;4.55;;;;;;;;;;5010066;28;20041;-69
2024/01/09 03:33:56;;;;;;;7.10;4.97;;;;;;;;;;5009996;28;20022;-65
2024/01/09 03:36:23;;;;;;;6.82;4.47;;;;;;;;;;5009863;28;20507;-67
2024/01/09 03:38:51;;;;;;;6.35;4.35;;;;;;;;;;5009632;28;20037;-66
2024/01/09 03:41:17;;;;;;;9.10;4.68;;;;;;;;;;5009450;28;20042;-66
2024/01/09 03:43:43;;;;;;;7.30;4.55;;;;;;;;;;5010084;28;20037;-66
2024/01/09 03:46:09;;;;;;;8.50;4.45;;;;;;;;;;5013232;28;20131;-66
2024/01/09 03:48:35;;;;;;;8.65;4.57;;;;;;;;;;5013304;28;20399;-67
2024/01/09 03:51:01;;;;;;;6.88;4.47;;;;;;;;;;5013117;28;20116;-66
2024/01/09 03:53:27;;;;;;;6.68;4.68;;;;;;;;;;5013204;28;20109;-66
2024/01/09 03:55:52;;;;;;;6.93;4.50;;;;;;;;;;5013232;28;20108;-67
2024/01/09 03:58:19;;;;;;;7.38;4.43;;;;;;;;;;5012786;28;20044;-67
2024/01/09 04:00:45;;;;;;;7.22;4.68;;;;;;;;;;5012870;28;20076;-66
2024/01/09 04:03:10;;;;;;;7.28;4.13;;;;;;;;;;5013083;28;20030;-66
2024/01/09 04:05:36;;;;;;;7.63;4.65;;;;;;;;;;5013114;28;20072;-66
2024/01/09 04:08:02;;;;;;;5.65;4.18;;;;;;;;;;5013014;28;20192;-66
2024/01/09 04:10:29;;;;;;;5.53;4.07;;;;;;;;;;5012822;28;20365;-66
2024/01/09 04:12:55;;;;;;;7.07;4.13;;;;;;;;;;5013087;28;20033;-66
2024/01/09 04:15:21;;;;;;;6.55;4.07;;;;;;;;;;5013187;28;20091;-66
2024/01/09 04:17:47;;;;;;;6.53;4.30;;;;;;;;;;5013767;28;20105;-66
2024/01/09 04:20:13;;;;;;;5.70;4.15;;;;;;;;;;5017542;28;20160;-69
2024/01/09 04:22:39;;;;;;;7.47;3.85;;;;;;;;;;5022638;28;20021;-70
2024/01/09 04:25:05;;;;;;;6.35;3.70;;;;;;;;;;5023944;28;20054;-67
2024/01/09 04:27:31;;;;;;;6.22;3.78;;;;;;;;;;5021894;28;20026;-67
2024/01/09 04:29:58;;;;;;;6.82;3.75;;;;;;;;;;5024055;28;20102;-67
2024/01/09 04:32:24;;;;;;;6.32;3.78;;;;;;;;;;5024712;28;20056;-66
2024/01/09 04:34:50;;;;;;;8.30;3.75;;;;;;;;;;5022923;28;20026;-66
2024/01/09 04:37:16;;;;;;;12.05;3.83;;;;;;;;;;5021306;28;20026;-66
2024/01/09 04:39:42;;;;;;;6.72;3.90;;;;;;;;;;5012394;28;20054;-66
2024/01/09 04:42:08;;;;;;;6.13;3.90;;;;;;;;;;5012561;28;20034;-66
2024/01/09 04:44:34;;;;;;;6.97;3.70;;;;;;;;;;5012725;28;20033;-66
2024/01/09 04:47:01;;;;;;;5.40;4.10;;;;;;;;;;5012679;28;20124;-66
2024/01/09 04:49:27;;;;;;;5.78;3.92;;;;;;;;;;5012164;28;20024;-66
2024/01/09 04:51:53;;;;;;;8.23;3.88;;;;;;;;;;5012148;28;20020;-65
2024/01/09 04:54:19;;;;;;;7.15;3.60;;;;;;;;;;5012332;28;20033;-66
2024/01/09 04:56:45;;;;;;;6.10;4.05;;;;;;;;;;5012725;28;20026;-66
2024/01/09 04:59:11;;;;;;;7.43;3.53;;;;;;;;;;5011156;28;20026;-66
2024/01/09 05:01:37;;;;;;;4.47;3.53;;;;;;;;;;5012415;28;20037;-66
2024/01/09 05:04:03;;;;;;;4.57;3.28;;;;;;;;;;5011118;28;20034;-67
2024/01/09 05:06:29;;;;;;;6.78;3.97;;;;;;;;;;5012625;28;20033;-66
2024/01/09 05:08:55;;;;;;;7.13;3.63;;;;;;;;;;5012303;28;20368;-66
2024/01/09 05:11:21;;;;;;;11.43;3.92;;;;;;;;;;5012566;28;20105;-66
2024/01/09 05:13:48;;;;;;;4.97;3.13;;;;;;;;;;5011987;28;20098;-66
2024/01/09 05:16:14;;;;;;;6.80;3.78;;;;;;;;;;5012368;28;20044;-66
2024/01/09 05:18:40;;;;;;;4.65;2.90;;;;;;;;;;5012551;28;20095;-66
2024/01/09 05:21:06;;;;;;;5.68;3.63;;;;;;;;;;5012081;28;20025;-67
2024/01/09 05:23:32;;;;;;;5.53;3.63;;;;;;;;;;5011751;28;20461;-65
2024/01/09 05:25:58;;;;;;;5.32;3.28;;;;;;;;;;5011704;28;20029;-66
2024/01/09 05:28:24;;;;;;;8.15;3.30;;;;;;;;;;5011516;28;20084;-67
2024/01/09 05:30:50;;;;;;;8.13;3.40;;;;;;;;;;5011724;28;20026;-67
2024/01/09 05:33:16;;;;;;;6.93;3.42;;;;;;;;;;5011704;28;20432;-66
2024/01/09 05:35:42;;;;;;;6.53;3.40;;;;;;;;;;5011598;28;20029;-65
2024/01/09 05:38:08;;;;;;;6.70;3.35;;;;;;;;;;5011315;28;20499;-66
2024/01/09 05:40:34;;;;;;;10.13;3.40;;;;;;;;;;5011538;28;20145;-66
2024/01/09 05:43:01;;;;;;;8.07;3.03;;;;;;;;;;5011575;28;20030;-67
2024/01/09 05:45:27;;;;;;;5.22;3.30;;;;;;;;;;5011369;28;20014;-65
2024/01/09 05:47:53;;;;;;;4.60;2.95;;;;;;;;;;5011193;28;20032;-65
2024/01/09 05:50:19;;;;;;;4.97;3.58;;;;;;;;;;5024136;28;20109;-65
2024/01/09 05:52:44;;;;;;;3.70;2.95;;;;;;;;;;5030708;28;20060;-68
2024/01/09 05:55:11;;;;;;;5.00;2.78;;;;;;;;;;5031056;28;20040;-67
2024/01/09 05:57:37;;;;;;;6.05;3.13;;;;;;;;;;5030893;28;20059;-67
2024/01/09 06:00:03;;;;;;;3.15;2.72;;;;;;;;;;5030472;28;20029;-67
2024/01/09 06:02:29;;;;;;;6.25;4.10;;;;;;;;;;5030843;28;20030;-66
2024/01/09 06:04:55;;;;;;;5.13;2.63;;;;;;;;;;5030853;28;20100;-69
2024/01/09 06:07:22;;;;;;;5.18;3.75;;;;;;;;;;5028797;28;20505;-68
2024/01/09 06:09:48;;;;;;;5.78;3.38;;;;;;;;;;5030549;28;20100;-66
2024/01/09 06:12:14;;;;;;;5.20;3.10;;;;;;;;;;5030822;28;20052;-66
2024/01/09 06:14:40;;;;;;;6.55;3.13;;;;;;;;;;5030734;28;20163;-66
2024/01/09 06:17:06;;;;;;;5.22;2.92;;;;;;;;;;5030858;28;20021;-66
2024/01/09 06:19:32;;;;;;;3.38;2.65;;;;;;;;;;5030284;28;20025;-65
2024/01/09 06:21:58;;;;;;;5.25;3.33;;;;;;;;;;5030439;28;20112;-67
2024/01/09 06:24:24;;;;;;;5.00;2.83;;;;;;;;;;5030745;28;20119;-67
2024/01/09 06:26:50;;;;;;;6.47;3.22;;;;;;;;;;5030495;28;20494;-66
2024/01/09 06:29:17;;;;;;;5.30;3.15;;;;;;;;;;5030046;28;20041;-67
2024/01/09 06:31:43;;;;;;;9.07;3.58;;;;;;;;;;5030047;28;20119;-66
2024/01/09 06:34:09;;;;;;;3.92;2.72;;;;;;;;;;5030319;28;20033;-67
2024/01/09 06:36:35;;;;;;;8.02;2.70;;;;;;;;;;5029873;28;20029;-67
2024/01/09 06:39:01;;;;;;;28.58;3.95;;;;;;;;;;5029516;28;20029;-65
2024/01/09 06:41:29;;;;;;;6.35;2.65;;;;;;;;;;5040475;28;20505;-64
2024/01/09 06:43:55;;;;;;;12.52;3.08;;;;;;;;;;5010370;28;20606;-65
2024/01/09 06:46:21;;;;;;;3.90;2.58;;;;;;;;;;5010750;28;20113;-66
2024/01/09 06:48:46;;;;;;;7.72;3.15;;;;;;;;;;5010251;28;20030;-65
2024/01/09 06:51:13;;;;;;;14.23;3.22;;;;;;;;;;5009972;28;20033;-64
2024/01/09 06:53:39;;;;;;;11.73;2.78;;;;;;;;;;5010159;28;20066;-65
2024/01/09 06:56:05;;;;;;;6.45;3.45;;;;;;;;;;5010557;28;20044;-64
2024/01/09 06:58:31;;;;;;;7.35;3.20;;;;;;;;;;5010393;28;20026;-65
2024/01/09 07:00:57;;;;;;;8.73;2.92;;;;;;;;;;5009930;28;20048;-65
2024/01/09 07:03:24;;;;;;;7.40;2.70;;;;;;;;;;5008804;28;20554;-65
2024/01/09 07:05:50;;;;;;;6.45;2.92;;;;;;;;;;5010354;28;20022;-64
2024/01/09 07:08:16;;;;;;;5.38;2.78;;;;;;;;;;5010031;28;20026;-64
2024/01/09 07:10:42;;;;;;;7.43;2.42;;;;;;;;;;5009841;28;20506;-66
2024/01/09 07:13:08;;;;;;;5.43;2.22;;;;;;;;;;5010017;28;20038;-64
2024/01/09 07:15:34;;;;;;;4.18;2.55;;;;;;;;;;5008553;28;20446;-65
2024/01/09 07:18:00;;;;;;;34.25;20.40;;;;;;;;;;5009988;28;20102;-61
2024/01/09 07:20:26;;;;;;;29.73;21.77;;;;;;;;;;5013546;28;20032;-62
2024/01/09 07:22:52;;;;;;;36.33;20.67;;;;;;;;;;5014195;28;20101;-64
2024/01/09 07:25:18;;;;;;;20.92;14.18;;;;;;;;;;5012746;28;20026;-64
2024/01/09 07:27:44;;;;;;;22.63;15.15;;;;;;;;;;5014365;28;20100;-64
2024/01/09 07:30:10;;;;;;;27.38;16.88;;;;;;;;;;5037146;22;20052;-69
2024/01/09 07:32:36;;;;;;;28.35;12.32;;;;;;;;;;5054597;28;20040;-72
2024/01/09 07:35:04;;;;;;;40.17;26.60;;;;;;;;;;5069984;28;20075;-74
2024/01/09 07:37:30;;;;;;;38.28;25.38;;;;;;;;;;5050504;28;20104;-75
2024/01/09 07:39:56;;;;;;;42.25;26.40;;;;;;;;;;5042413;28;20565;-75
2024/01/09 07:42:21;;;;;;;43.83;26.63;;;;;;;;;;5052326;28;20083;-75
2024/01/09 07:44:48;;;;;;;53.97;20.20;;;;;;;;;;5051616;28;20481;-70
2024/01/09 07:47:14;;;;;;;33.70;22.38;;;;;;;;;;5054681;28;20551;-70
2024/01/09 07:49:40;;;;;;;24.95;12.70;;;;;;;;;;5054164;28;20387;-69
2024/01/09 07:52:06;;;;;;;28.73;14.77;;;;;;;;;;5053079;28;20096;-68
2024/01/09 07:54:32;;;;;;;24.23;14.52;;;;;;;;;;5054447;28;20120;-70
2024/01/09 07:56:58;;;;;;;25.88;14.10;;;;;;;;;;5045391;28;20083;-72
2024/01/09 07:59:24;;;;;;;21.42;13.27;;;;;;;;;;5045936;28;20486;-70
2024/01/09 08:01:54;;;;;;;29.83;12.43;;;;;;;;;;5044041;28;20047;-70
2024/01/09 08:04:22;;;;;;;22.85;12.02;;;;;;;;;;5039204;28;20033;-70
2024/01/09 08:06:50;;;;;;;20.83;10.98;;;;;;;;;;5034309;28;20447;-71
2024/01/09 08:09:17;;;;;;;20.45;11.48;;;;;;;;;;5034171;28;20474;-70
2024/01/09 08:11:43;;;;;;;22.92;11.15;;;;;;;;;;5034099;28;20458;-70
2024/01/09 08:14:09;;;;;;;45.13;20.50;;;;;;;;;;5034155;28;20025;-73
2024/01/09 08:16:35;;;;;;;41.35;24.55;;;;;;;;;;5034676;28;20592;-74
2024/01/09 08:19:01;;;;;;;33.88;22.85;;;;;;;;;;5034025;28;20036;-72
2024/01/09 08:21:27;;;;;;;37.35;23.70;;;;;;;;;;5033336;28;20030;-71
2024/01/09 08:23:53;;;;;;;39.75;25.58;;;;;;;;;;5034004;28;20029;-71
2024/01/09 08:26:19;;;;;;;37.55;24.25;;;;;;;;;;5034098;28;20037;-71
2024/01/09 08:28:45;;;;;;;35.53;24.17;;;;;;;;;;5033869;28;20022;-71
2024/01/09 08:31:11;;;;;;;43.67;25.08;;;;;;;;;;5033326;28;20526;-71
2024/01/09 08:33:37;;;;;;;39.40;24.73;;;;;;;;;;5033813;28;20029;-69
2024/01/09 08:36:03;;;;;;;61.83;20.45;;;;;;;;;;5033836;28;20030;-71
2024/01/09 08:38:29;;;;;;;43.95;23.77;;;;;;;;;;5033683;28;20479;-72
2024/01/09 08:40:56;;;;;;;35.67;21.75;;;;;;;;;;5033316;28;20483;-73
2024/01/09 08:43:22;;;;;;;37.67;20.98;;;;;;;;;;5034196;28;20092;-73
2024/01/09 08:45:49;;;;;;;33.00;18.92;;;;;;;;;;5034371;28;20587;-73
2024/01/09 08:48:15;;;;;;;30.45;18.17;;;;;;;;;;5033973;28;20092;-74
2024/01/09 08:50:41;;;;;;;30.17;16.80;;;;;;;;;;5033766;28;20076;-72
2024/01/09 08:53:07;;;;;;;25.35;16.85;;;;;;;;;;5033748;28;20028;-71
2024/01/09 08:55:34;;;;;;;30.67;15.30;;;;;;;;;;5032329;28;20434;-69
2024/01/09 08:58:00;;;;;;;26.38;14.38;;;;;;;;;;5033242;28;20029;-69
2024/01/09 09:00:27;;;;;;;26.13;14.35;;;;;;;;;;5032926;28;20095;-70
2024/01/09 09:02:53;;;;;;;22.50;13.20;;;;;;;;;;5031828;28;20151;-72
2024/01/09 09:05:19;;;;;;;25.15;13.98;;;;;;;;;;5031365;28;20083;-72
2024/01/09 09:07:45;;;;;;;21.73;13.00;;;;;;;;;;5030273;28;20052;-71
2024/01/09 09:10:11;;;;;;;20.60;12.18;;;;;;;;;;5030268;28;20025;-72
2024/01/09 09:12:37;;;;;;;20.20;11.77;;;;;;;;;;5047257;28;20409;-72
2024/01/09 09:15:03;;;;;;;18.23;11.82;;;;;;;;;;5051674;28;20021;-73
2024/01/09 09:17:30;;;;;;;29.40;12.55;;;;;;;;;;5051471;28;20021;-71
2024/01/09 09:19:57;;;;;;;18.73;11.32;;;;;;;;;;5051296;28;20032;-69
2024/01/09 09:22:25;;;;;;;23.42;11.13;;;;;;;;;;5051707;28;20033;-71
2024/01/09 09:24:52;;;;;;;24.10;11.48;;;;;;;;;;5051540;28;20038;-69
2024/01/09 09:27:18;;;;;;;23.02;10.77;;;;;;;;;;5049712;28;20036;-67
2024/01/09 09:29:44;;;;;;;29.75;11.70;;;;;;;;;;5038820;28;20036;-67
2024/01/09 09:32:10;;;;;;;25.98;10.70;;;16.10;64.20;;;;;;5038914;28;20043;-65
2024/01/09 09:34:39;;;;;;;21.55;10.80;;;16.20;64.30;;;;;;5033627;28;20056;-66
2024/01/09 09:37:05;;;;;;;23.02;11.63;;;16.30;63.90;;;;;;5046258;28;20045;-66
2024/01/09 09:39:30;;;;;;;19.55;10.88;;;16.40;65.10;;;;;;5050908;28;20091;-67
2024/01/09 09:41:59;;;;;;;20.58;10.63;;;16.50;65.30;;;;;;5050000;28;20403;-67
2024/01/09 09:44:26;;;;;;;18.65;11.05;;;16.70;65.80;;;;;;5050832;28;20065;-69
2024/01/09 09:46:52;;;;;;;21.88;10.75;;;16.90;65.70;;;;;;5050783;28;20370;-70
2024/01/09 09:49:24;;;;;;;34.55;11.52;;;16.90;66.00;;;;;;5050229;28;20108;-68
2024/01/09 09:51:52;;;;;;;27.77;10.23;;;17.00;66.30;;;;;;5048689;28;20028;-67
2024/01/09 09:54:18;;;;;;;24.58;10.48;;;17.10;66.40;;;;;;5048857;28;20569;-68
2024/01/09 09:56:45;;;;;;;19.88;9.45;;;17.20;66.50;;;;;;5048697;28;20025;-68
2024/01/09 09:59:11;;;;;;;16.88;9.18;;;17.20;66.30;;;;;;5048845;28;20505;-68
2024/01/09 10:01:38;;;;;;;36.40;10.60;;;17.30;66.40;;;;;;5048515;28;20032;-67
2024/01/09 10:04:27;;;;;;;24.15;10.18;;;17.40;66.50;;;;;;5048781;28;20064;-65
2024/01/09 10:06:58;;;;;;;17.85;9.38;;;17.40;66.60;;;;;;5050561;28;20035;-66
2024/01/09 10:09:34;;;;;;;23.85;9.88;;;17.50;67.00;;;;;;5050289;28;20037;-67
2024/01/09 10:11:59;;;;;;;33.08;10.45;;;17.50;66.70;;;;;;5050591;28;20033;-63
2024/01/09 10:14:25;;;;;;;27.80;9.88;;;17.50;66.80;;;;;;5050373;28;20073;-66
2024/01/09 10:16:51;;;;;;;22.27;9.38;;;17.50;66.80;;;;;;5050364;28;20013;-67
2024/01/09 10:19:17;;;;;;;21.20;8.90;;;17.60;67.40;;;;;;5050326;28;20025;-72
2024/01/09 10:21:43;;;;;;;20.30;9.15;;;17.60;67.20;;;;;;5050233;28;20024;-70
2024/01/09 10:24:09;;;;;;;26.13;9.48;;;17.60;66.90;;;;;;5050476;28;20029;-71
2024/01/09 10:26:35;;;;;;;23.17;9.55;;;17.60;67.00;;;;;;5050168;28;20129;-72
2024/01/09 10:29:01;;;;;;;20.60;9.43;;;17.70;66.80;;;;;;5050327;28;20029;-70
2024/01/09 10:31:29;;;;;;;23.50;9.10;;;17.70;67.20;;;;;;5049848;28;20035;-70
2024/01/09 10:33:56;;;;;;;25.80;8.70;;;17.70;66.90;;;;;;5050096;28;20025;-71
2024/01/09 10:36:22;;;;;;;27.63;9.65;;;17.70;67.10;;;;;;5050075;28;20047;-69
2024/01/09 10:38:48;;;;;;;35.72;9.85;;;17.70;67.10;;;;;;5049952;28;20028;-69
2024/01/09 10:41:18;;;;;;;36.22;9.55;;;17.70;67.30;;;;;;5049891;28;20372;-70
2024/01/09 10:43:44;;;;;;;22.10;8.57;;;17.70;67.50;;;;;;5050280;28;20029;-70
2024/01/09 10:46:10;;;;;;;19.45;8.20;;;17.70;67.30;;;;;;5049853;28;20481;-70
2024/01/09 10:48:38;;;;;;;19.08;8.48;;;17.60;67.40;;;;;;5049915;28;20090;-70
2024/01/09 10:51:05;;;;;;;19.52;8.10;;;17.70;67.40;;;;;;5049732;28;20086;-70
2024/01/09 10:53:34;;;;;;;20.33;8.02;;;17.60;67.30;;;;;;5049666;28;20032;-70
2024/01/09 10:56:03;;;;;;;22.30;8.75;;;17.60;67.40;;;;;;5050086;28;20105;-68
2024/01/09 10:58:28;;;;;;;14.35;7.53;;;17.60;67.50;;;;;;5049817;28;20017;-70
2024/01/09 11:00:54;;;;;;;16.60;7.50;;;17.50;67.40;;;;;;5049562;28;20021;-70
2024/01/09 11:03:20;;;;;;;23.92;8.25;;;17.50;67.40;;;;;;5049677;28;20064;-70
2024/01/09 11:05:51;;;;;;;19.83;7.88;;;17.50;67.40;;;;;;5048227;28;20504;-71
2024/01/09 11:08:17;;;;;;;;;;;17.50;67.50;;;;;;5050320;28;20031;-71
2024/01/09 11:10:44;;;;;;;12.75;7.07;;;17.50;67.50;;;;;;5049875;28;19912;-70
2024/01/09 11:13:12;;;;;;;18.05;8.00;;;17.50;67.50;;;;;;5049904;28;20025;-72
2024/01/09 11:15:46;;;;;;;15.45;6.50;;;17.50;67.50;;;;;;5049753;28;20029;-71
2024/01/09 11:18:16;;;;;;;14.57;7.38;;;17.50;67.60;;;;;;5050040;28;20402;-71
2024/01/09 11:21:25;;;;;;;12.85;6.40;;;17.50;67.60;;;;;;5048290;28;20107;-71
2024/01/09 11:23:54;;;;;;;12.98;6.60;;;17.40;67.60;;;;;;5038399;28;20559;-72
2024/01/09 11:26:21;;;;;;;17.13;5.82;;;17.40;67.60;;;;;;5029702;28;20044;-72
2024/01/09 11:28:46;;;;;;;11.52;6.15;;;17.50;67.70;;;;;;5029274;28;20514;-71
2024/01/09 11:31:18;;;;;;;11.98;5.82;;;17.40;67.70;;;;;;5032085;28;20102;-72
2024/01/09 11:33:44;;;;;;;12.75;6.18;;;17.40;67.70;;;;;;5045359;28;20028;-71
2024/01/09 11:36:14;;;;;;;12.50;5.95;;;17.40;67.70;;;;;;5036843;28;20056;-70
2024/01/09 11:38:40;;;;;;;11.65;5.97;;;17.40;67.70;;;;;;5035403;28;20021;-72
2024/01/09 11:41:08;;;;;;;10.75;5.80;;;17.40;67.80;;;;;;5027979;28;20026;-71
2024/01/09 11:43:56;;;;;;;11.88;5.75;;;17.40;67.80;;;;;;5033788;28;20522;-71
2024/01/09 11:46:26;;;;;;;10.57;5.40;;;17.40;67.90;;;;;;5038423;28;20029;-71
2024/01/09 11:48:52;;;;;;;12.82;5.53;;;17.40;67.90;;;;;;5049193;28;20047;-72
2024/01/09 11:51:18;;;;;;;12.02;5.63;;;17.40;68.00;;;;;;5049024;28;20017;-72
2024/01/09 11:53:43;;;;;;;10.68;5.57;;;17.40;68.00;;;;;;5044497;28;20024;-71
2024/01/09 11:56:13;;;;;;;15.20;5.78;;;17.40;68.00;;;;;;5029484;28;20029;-72
2024/01/09 11:58:41;;;;;;;11.07;4.93;;;17.30;68.10;;;;;;5030995;28;20025;-71
2024/01/09 12:01:07;;;;;;;16.30;5.75;;;17.40;68.20;;;;;;5049100;28;20029;-73
2024/01/09 12:03:35;;;;;;;10.98;6.32;;;17.40;68.30;;;;;;5044274;28;20029;-71
2024/01/09 12:06:04;;;;;;;12.65;5.63;;;17.40;68.30;;;;;;5047028;28;20029;-70
2024/01/09 12:08:31;;;;;;;7.13;4.90;;;17.40;68.30;;;;;;5052847;28;20489;-70
2024/01/09 12:10:56;;;;;;;11.02;5.60;;;17.40;68.30;;;;;;5051659;28;20029;-71
2024/01/09 12:13:22;;;;;;;17.80;5.90;;;17.40;68.30;;;;;;5051336;28;20079;-70
2024/01/09 12:15:48;;;;;;;11.93;5.20;;;17.40;68.30;;;;;;5050962;28;20013;-71
2024/01/09 12:18:14;;;;;;;11.52;5.65;;;17.40;68.40;;;;;;5052591;28;20032;-71
2024/01/09 12:20:39;;;;;;;11.73;5.85;;;17.40;68.70;;;;;;5052779;28;20394;-69
2024/01/09 12:23:06;;;;;;;14.70;5.45;;;17.40;69.20;;;;;;5053127;28;20014;-70
2024/01/09 12:25:32;;;;;;;18.58;6.35;;;17.40;69.60;;;;;;5053295;28;20033;-70
2024/01/09 12:27:59;;;;;;;14.35;6.28;;;17.40;69.90;;;;;;5052659;28;20021;-71
2024/01/09 12:30:25;;;;;;;13.38;6.40;;;17.40;70.10;;;;;;5052051;28;20101;-70
2024/01/09 12:32:53;;;;;;;10.82;6.28;;;17.40;70.20;;;;;;5052380;28;20040;-71
2024/01/09 12:35:19;;;;;;;12.65;6.72;;;17.40;70.20;;;;;;5052434;28;20032;-70
2024/01/09 12:37:48;;;;;;;10.77;6.28;;;17.40;70.30;;;;;;5052522;28;20025;-70
2024/01/09 12:40:18;;;;;;;13.52;6.20;;;17.50;70.20;;;;;;5052539;28;20025;-70
2024/01/09 12:43:06;;;;;;;10.68;6.43;;;17.50;70.30;;;;;;5053727;28;20387;-71
2024/01/09 12:45:31;;;;;;;13.68;6.95;;;17.50;70.20;;;;;;5053994;28;20036;-69
2024/01/09 12:47:57;;;;;;;13.00;6.38;;;17.50;70.40;;;;;;5053773;28;20035;-70
2024/01/09 12:50:27;;;;;;;15.13;6.53;;;17.50;70.50;;;;;;5053545;28;20029;-71
2024/01/09 12:52:53;;;;;;;12.13;5.53;;;17.50;70.60;;;;;;5054533;28;20017;-71
2024/01/09 12:55:18;;;;;;;15.00;6.10;;;17.50;70.60;;;;;;5053470;28;20028;-70
2024/01/09 12:57:44;;;;;;;17.63;5.95;;;17.40;70.70;;;;;;5051648;28;20052;-69
2024/01/09 13:00:10;;;;;;;13.70;6.20;;;17.50;70.70;;;;;;5051924;28;20435;-69
2024/01/09 13:02:36;;;;;;;14.02;6.80;;;17.50;70.70;;;;;;5051898;28;20036;-69
2024/01/09 13:05:02;;;;;;;15.93;6.13;;;17.50;70.70;;;;;;5051745;28;20029;-69
2024/01/09 13:07:27;;;;;;;12.65;6.97;;;17.50;70.80;;;;;;5051616;28;20021;-70
2024/01/09 13:09:53;;;;;;;15.98;6.05;;;17.50;70.80;;;;;;5050882;28;20047;-70
2024/01/09 13:12:18;;;;;;;18.02;6.30;;;17.50;70.80;;;;;;5051495;28;20040;-70
2024/01/09 13:14:44;;;;;;;15.48;6.30;;;17.50;70.90;;;;;;5051582;28;20579;-69
2024/01/09 13:17:09;;;;;;;12.52;5.97;;;17.50;70.90;;;;;;5050330;28;20035;-69
2024/01/09 13:19:35;;;;;;;13.63;5.95;;;17.50;70.90;;;;;;5051141;28;20366;-70
2024/01/09 13:22:01;;;;;;;12.38;5.95;;;17.50;70.80;;;;;;5051770;28;20029;-69
2024/01/09 13:24:27;;;;;;;11.45;5.50;;;17.40;70.60;;;;;;5051454;28;20052;-70
2024/01/09 13:26:52;;;;;;;12.30;5.75;;;17.50;70.40;;;;;;5051136;28;20458;-70
2024/01/09 13:29:21;;;;;;;15.35;6.28;;;17.50;70.40;;;;;;5050928;28;20049;-72
2024/01/09 13:31:46;;;;;;;40.78;8.05;;;17.50;71.00;;;;;;5066839;22;20037;-65
2024/01/09 13:34:12;;;;;;;18.80;6.10;;;17.50;71.40;;;;;;5052690;28;20021;-65
2024/01/09 13:36:38;;;;;;;15.43;6.28;;;17.50;71.10;;;;;;5052524;28;20021;-65
2024/01/09 13:39:09;;;;;;;20.95;7.10;;;17.50;71.20;;;;;;5052309;28;20124;-65
2024/01/09 13:41:34;;;;;;;22.17;6.97;;;17.50;71.00;;;;;;5053135;28;20025;-65
2024/01/09 13:44:00;;;;;;;16.75;6.60;;;17.60;71.10;;;;;;5052972;28;20612;-66
2024/01/09 13:46:25;;;;;;;16.90;5.88;;;17.60;71.10;;;;;;5053140;28;20107;-65
2024/01/09 13:48:52;;;;;;;15.65;6.25;;;17.60;71.50;;;;;;5044911;28;20509;-66